createdAt,value
2024-05-09T00:00:18.682Z,99.03
2024-05-09T00:02:53.117Z,97.89
2024-05-09T00:05:19.806Z,99.27
2024-05-09T00:07:46.510Z,100.00
2024-05-09T00:10:22.290Z,98.74
2024-05-09T00:12:55.703Z,96.99
2024-05-09T00:15:22.257Z,96.89
2024-05-09T00:17:48.850Z,96.62
2024-05-09T00:20:20.520Z,97.15
2024-05-09T00:22:51.275Z,96.97
2024-05-09T00:25:17.889Z,97.19
2024-05-09T00:27:44.502Z,97.13
2024-05-09T00:30:17.460Z,97.30
2024-05-09T00:32:48.182Z,96.84
2024-05-09T00:35:14.909Z,96.48
2024-05-09T00:37:41.460Z,96.38
2024-05-09T00:40:15.094Z,96.69
2024-05-09T00:42:48.852Z,97.07
2024-05-09T00:45:15.447Z,96.48
2024-05-09T00:47:43.224Z,97.01
2024-05-09T00:50:15.957Z,96.85
2024-05-09T00:52:49.288Z,96.99
2024-05-09T00:55:17.292Z,97.51
2024-05-09T00:57:44.728Z,97.25
2024-05-09T01:00:22.402Z,97.12
2024-05-09T01:02:57.146Z,96.83
2024-05-09T01:05:23.820Z,96.58
2024-05-09T01:07:50.398Z,96.67
2024-05-09T01:10:21.321Z,98.24
2024-05-09T01:12:54.291Z,97.61
2024-05-09T01:15:20.811Z,97.15
2024-05-09T01:17:48.471Z,96.37
2024-05-09T01:20:20.235Z,96.55
2024-05-09T01:22:54.403Z,96.09
2024-05-09T01:25:21.097Z,96.68
2024-05-09T01:27:47.612Z,96.56
2024-05-09T01:30:17.451Z,96.62
2024-05-09T01:32:48.066Z,96.79
2024-05-09T01:35:14.807Z,96.56
2024-05-09T01:37:41.569Z,96.82
2024-05-09T01:40:12.349Z,97.01
2024-05-09T01:42:44.874Z,98.61
2024-05-09T01:45:12.277Z,99.79
2024-05-09T01:47:39.116Z,100.00
2024-05-09T01:50:09.001Z,100.00
2024-05-09T01:52:38.843Z,99.06
2024-05-09T01:55:07.153Z,98.50
2024-05-09T01:57:33.899Z,98.04
2024-05-09T02:00:00.423Z,97.79
2024-05-09T02:02:27.181Z,97.31
2024-05-09T02:04:53.940Z,96.88
2024-05-09T02:07:20.760Z,96.65
2024-05-09T02:09:47.353Z,96.99
2024-05-09T02:12:13.995Z,96.58
2024-05-09T02:14:40.605Z,96.99
2024-05-09T02:17:07.283Z,97.51
2024-05-09T02:19:34.000Z,97.21
2024-05-09T02:22:00.633Z,98.49
2024-05-09T02:24:27.296Z,99.13
2024-05-09T02:26:53.807Z,99.21
2024-05-09T02:29:20.342Z,98.67
2024-05-09T02:31:47.071Z,98.29
2024-05-09T02:34:13.818Z,97.80
2024-05-09T02:36:40.381Z,97.05
2024-05-09T02:39:06.957Z,97.26
2024-05-09T02:41:33.527Z,97.66
2024-05-09T02:44:00.119Z,97.32
2024-05-09T02:46:26.706Z,96.84
2024-05-09T02:48:53.434Z,96.37
2024-05-09T02:51:20.030Z,96.18
2024-05-09T02:53:46.676Z,96.84
2024-05-09T02:56:13.390Z,97.05
2024-05-09T02:58:39.968Z,97.40
2024-05-09T03:01:06.580Z,96.74
2024-05-09T03:03:33.491Z,96.90
2024-05-09T03:06:01.939Z,98.41
2024-05-09T03:08:28.615Z,99.24
2024-05-09T03:10:55.226Z,98.72
2024-05-09T03:13:21.834Z,98.58
2024-05-09T03:15:48.342Z,97.82
2024-05-09T03:18:15.005Z,97.78
2024-05-09T03:20:43.754Z,98.92
2024-05-09T03:23:10.747Z,99.62
2024-05-09T03:25:38.490Z,98.76
2024-05-09T03:28:05.584Z,98.35
2024-05-09T03:30:39.920Z,97.97
2024-05-09T03:33:19.913Z,97.93
2024-05-09T03:35:48.044Z,97.71
2024-05-09T03:38:15.281Z,97.52
2024-05-09T03:40:49.895Z,98.33
2024-05-09T03:43:17.702Z,97.88
2024-05-09T03:45:44.991Z,97.95
2024-05-09T03:48:11.841Z,99.06
2024-05-09T03:50:38.876Z,99.21
2024-05-09T03:53:06.320Z,98.38
2024-05-09T03:55:32.947Z,97.92
2024-05-09T03:57:59.674Z,97.59
2024-05-09T04:00:35.016Z,97.74
2024-05-09T04:03:10.752Z,96.96
2024-05-09T04:05:44.399Z,96.62
2024-05-09T04:08:11.721Z,97.35
2024-05-09T04:10:38.477Z,98.05
2024-05-09T04:13:05.378Z,98.96
2024-05-09T04:15:32.466Z,99.83
2024-05-09T04:18:02.601Z,100.00
2024-05-09T04:20:37.380Z,99.96
2024-05-09T04:23:08.237Z,99.30
2024-05-09T04:25:35.803Z,98.30
2024-05-09T04:28:02.513Z,97.70
2024-05-09T04:30:36.743Z,96.80
2024-05-09T04:33:08.512Z,96.25
2024-05-09T04:35:37.122Z,96.13
2024-05-09T04:38:04.475Z,95.79
2024-05-09T04:40:34.621Z,96.14
2024-05-09T04:43:07.581Z,96.72
2024-05-09T04:45:34.958Z,97.36
2024-05-09T04:48:02.338Z,97.05
2024-05-09T04:50:35.722Z,96.89
2024-05-09T04:53:06.747Z,97.23
2024-05-09T04:55:34.114Z,97.62
2024-05-09T04:58:01.097Z,97.63
2024-05-09T05:00:35.499Z,98.91
2024-05-09T05:03:10.260Z,98.58
2024-05-09T05:05:42.663Z,98.07
2024-05-09T05:08:13.881Z,99.04
2024-05-09T05:10:41.310Z,99.94
2024-05-09T05:13:18.361Z,99.69
2024-05-09T05:15:55.932Z,97.48
2024-05-09T05:18:23.839Z,98.01
2024-05-09T05:20:50.647Z,97.59
2024-05-09T05:23:21.854Z,99.65
2024-05-09T05:25:49.956Z,99.79
2024-05-09T05:28:17.151Z,100.00
2024-05-09T05:30:44.023Z,100.00
2024-05-09T05:33:12.583Z,100.00
2024-05-09T05:35:40.319Z,100.00
2024-05-09T05:38:08.137Z,100.00
2024-05-09T05:40:40.393Z,100.00
2024-05-09T05:43:09.741Z,100.00
2024-05-09T05:45:36.582Z,100.00
2024-05-09T05:48:04.773Z,100.00
2024-05-09T05:50:35.686Z,100.00
2024-05-09T05:53:05.917Z,100.00
2024-05-09T05:55:32.724Z,100.00
2024-05-09T05:57:59.549Z,100.00
2024-05-09T06:00:34.086Z,100.00
2024-05-09T06:03:05.176Z,100.00
2024-05-09T06:05:32.178Z,100.00
2024-05-09T06:07:59.052Z,100.00
2024-05-09T06:10:30.386Z,100.00
2024-05-09T06:13:04.402Z,100.00
2024-05-09T06:15:30.950Z,100.00
2024-05-09T06:17:57.652Z,100.00
2024-05-09T06:20:33.913Z,100.00
2024-05-09T06:23:03.525Z,100.00
2024-05-09T06:25:30.230Z,100.00
2024-05-09T06:27:56.860Z,100.00
2024-05-09T06:30:30.391Z,100.00
2024-05-09T06:33:05.505Z,100.00
2024-05-09T06:35:32.970Z,100.00
2024-05-09T06:37:59.798Z,100.00
2024-05-09T06:40:35.899Z,100.00
2024-05-09T06:43:05.861Z,100.00
2024-05-09T06:45:32.566Z,100.00
2024-05-09T06:47:59.469Z,100.00
2024-05-09T06:50:31.132Z,100.00
2024-05-09T06:53:02.719Z,100.00
2024-05-09T06:55:29.378Z,100.00
2024-05-09T06:57:55.989Z,100.00
2024-05-09T07:00:30.399Z,100.00
2024-05-09T07:03:08.393Z,100.00
2024-05-09T07:05:35.316Z,100.00
2024-05-09T07:08:01.945Z,100.00
2024-05-09T07:10:34.131Z,100.00
2024-05-09T07:13:01.967Z,99.86
2024-05-09T07:15:28.571Z,97.57
2024-05-09T07:17:55.477Z,98.56
2024-05-09T07:20:31.707Z,97.02
2024-05-09T07:23:02.727Z,95.16
2024-05-09T07:25:29.538Z,94.51
2024-05-09T07:27:56.180Z,95.84
2024-05-09T07:30:27.801Z,94.60
2024-05-09T07:33:00.347Z,92.35
2024-05-09T07:35:27.471Z,91.66
2024-05-09T07:37:54.360Z,92.90
2024-05-09T07:40:31.719Z,91.74
2024-05-09T07:43:07.420Z,90.01
2024-05-09T07:52:23.425Z,88.78
2024-05-09T07:53:39.060Z,87.31
2024-05-09T07:56:09.739Z,86.65
2024-05-09T07:58:37.105Z,85.21
2024-05-09T08:01:04.007Z,88.24
2024-05-09T08:03:31.269Z,83.76
2024-05-09T08:05:57.912Z,80.47
2024-05-09T08:08:24.453Z,83.67
2024-05-09T08:10:51.539Z,79.04
2024-05-09T08:13:18.435Z,77.70
2024-05-09T08:15:45.210Z,76.12
2024-05-09T08:18:12.130Z,75.12
2024-05-09T08:20:39.765Z,75.43
2024-05-09T08:23:06.850Z,75.57
2024-05-09T08:25:33.525Z,74.21
2024-05-09T08:28:00.149Z,73.12
2024-05-09T08:30:33.439Z,73.26
2024-05-09T08:33:04.347Z,73.17
2024-05-09T08:35:31.595Z,74.00
2024-05-09T08:37:58.282Z,71.24
2024-05-09T08:40:32.828Z,69.06
2024-05-09T08:43:02.977Z,70.30
2024-05-09T08:45:31.187Z,69.78
2024-05-09T08:48:01.266Z,67.96
2024-05-09T08:50:36.135Z,69.67
2024-05-09T08:53:05.873Z,67.97
2024-05-09T08:55:32.701Z,67.21
2024-05-09T08:58:02.968Z,65.00
2024-05-09T09:00:36.768Z,66.57
2024-05-09T09:03:09.093Z,66.80
2024-05-09T09:05:38.909Z,65.87
2024-05-09T09:08:07.830Z,64.43
2024-05-09T09:10:35.230Z,65.42
2024-05-09T09:13:04.459Z,64.42
2024-05-09T09:15:31.691Z,64.48
2024-05-09T09:17:59.955Z,65.52
2024-05-09T09:20:34.138Z,65.23
2024-05-09T09:23:03.772Z,62.62
2024-05-09T09:25:32.068Z,62.96
2024-05-09T09:27:59.247Z,61.79
2024-05-09T09:30:36.262Z,60.34
2024-05-09T09:33:06.267Z,60.30
2024-05-09T09:35:33.044Z,63.20
2024-05-09T09:38:02.541Z,65.05
2024-05-09T09:40:36.218Z,63.37
2024-05-09T09:43:14.746Z,63.68
2024-05-09T09:45:43.533Z,62.45
2024-05-09T09:48:10.409Z,63.64
2024-05-09T09:50:38.842Z,61.97
2024-05-09T09:53:07.585Z,63.63
2024-05-09T09:55:35.615Z,62.49
2024-05-09T09:58:04.160Z,64.22
2024-05-09T10:00:33.402Z,64.27
2024-05-09T10:03:01.705Z,63.36
2024-05-09T10:05:30.007Z,61.39
2024-05-09T10:07:58.379Z,60.20
2024-05-09T10:10:32.053Z,60.17
2024-05-09T10:13:04.156Z,59.37
2024-05-09T10:15:42.847Z,59.55
2024-05-09T10:18:09.726Z,55.87
2024-05-09T10:20:46.472Z,55.59
2024-05-09T10:23:26.794Z,57.08
2024-05-09T10:26:03.650Z,57.18
2024-05-09T10:28:32.025Z,57.60
2024-05-09T10:31:08.867Z,55.90
2024-05-09T10:33:55.712Z,53.59
2024-05-09T10:36:26.626Z,52.36
2024-05-09T10:38:54.429Z,51.29
2024-05-09T10:41:22.989Z,55.08
2024-05-09T10:43:50.478Z,54.84
2024-05-09T10:46:19.142Z,54.78
2024-05-09T10:48:47.379Z,51.92
2024-05-09T10:51:14.200Z,49.90
2024-05-09T10:53:45.455Z,50.72
2024-05-09T10:56:14.398Z,51.10
2024-05-09T10:58:41.102Z,50.04
2024-05-09T11:01:09.235Z,51.02
2024-05-09T11:03:36.889Z,53.60
2024-05-09T11:06:04.182Z,51.50
2024-05-09T11:08:32.480Z,51.45
2024-05-09T11:10:59.841Z,49.96
2024-05-09T11:13:34.817Z,49.66
2024-05-09T11:16:02.757Z,48.73
2024-05-09T11:18:35.150Z,50.11
2024-05-09T11:21:12.580Z,47.52
2024-05-09T11:23:39.747Z,48.62
2024-05-09T11:26:06.959Z,48.13
2024-05-09T11:28:33.502Z,46.71
2024-05-09T11:31:10.545Z,48.52
2024-05-09T11:33:45.545Z,49.82
2024-05-09T11:36:12.935Z,50.90
2024-05-09T11:38:40.125Z,48.76
2024-05-09T11:41:06.636Z,51.01
2024-05-09T11:43:33.602Z,50.71
2024-05-09T11:46:01.175Z,52.38
2024-05-09T11:48:28.243Z,55.46
2024-05-09T11:50:55.525Z,54.14
2024-05-09T11:53:22.578Z,54.46
2024-05-09T11:55:49.304Z,54.45
2024-05-09T11:58:17.819Z,53.21
2024-05-09T12:00:45.330Z,53.06
2024-05-09T12:03:12.411Z,54.17
2024-05-09T12:05:39.254Z,52.87
2024-05-09T12:08:06.867Z,52.57
2024-05-09T12:10:35.757Z,53.22
2024-05-09T12:13:05.067Z,52.82
2024-05-09T12:15:33.881Z,52.87
2024-05-09T12:18:03.351Z,52.07
2024-05-09T12:20:36.698Z,52.98
2024-05-09T12:23:06.247Z,54.56
2024-05-09T12:25:32.945Z,53.98
2024-05-09T12:27:59.940Z,54.97
2024-05-09T12:30:35.429Z,55.57
2024-05-09T12:33:06.180Z,56.71
2024-05-09T12:35:33.038Z,53.78
2024-05-09T12:37:59.840Z,56.22
2024-05-09T12:40:34.598Z,54.36
2024-05-09T12:43:04.824Z,54.52
2024-05-09T12:45:31.863Z,56.31
2024-05-09T12:47:58.691Z,54.89
2024-05-09T12:50:31.920Z,54.68
2024-05-09T12:53:00.947Z,54.40
2024-05-09T12:55:28.531Z,53.67
2024-05-09T12:57:57.249Z,54.42
2024-05-09T13:00:31.111Z,55.67
2024-05-09T13:03:00.642Z,52.42
2024-05-09T13:05:27.811Z,55.52
2024-05-09T13:07:56.264Z,53.63
2024-05-09T13:10:29.423Z,53.60
2024-05-09T13:12:59.812Z,54.20
2024-05-09T13:15:26.769Z,55.81
2024-05-09T13:17:53.431Z,57.05
2024-05-09T13:20:28.993Z,53.35
2024-05-09T13:23:01.819Z,53.38
2024-05-09T13:25:28.512Z,54.06
2024-05-09T13:27:56.297Z,53.46
2024-05-09T13:30:29.764Z,54.91
2024-05-09T13:33:06.337Z,53.49
2024-05-09T13:35:35.216Z,53.11
2024-05-09T13:38:02.599Z,53.79
2024-05-09T13:40:33.807Z,54.30
2024-05-09T13:43:02.983Z,56.85
2024-05-09T13:45:29.863Z,57.20
2024-05-09T13:47:56.824Z,55.04
2024-05-09T13:50:31.549Z,56.21
2024-05-09T13:53:02.147Z,57.31
2024-05-09T13:55:28.811Z,59.28
2024-05-09T13:57:55.814Z,60.07
2024-05-09T14:00:32.296Z,59.52
2024-05-09T14:03:09.383Z,58.30
2024-05-09T14:05:36.274Z,58.66
2024-05-09T14:08:03.190Z,59.90
2024-05-09T14:10:31.870Z,58.97
2024-05-09T14:13:00.261Z,58.13
2024-05-09T14:15:27.035Z,58.21
2024-05-09T14:17:54.511Z,57.54
2024-05-09T14:20:30.326Z,60.49
2024-05-09T14:22:59.408Z,57.91
2024-05-09T14:25:31.724Z,56.31
2024-05-09T14:27:58.519Z,58.34
2024-05-09T14:30:34.882Z,61.04
2024-05-09T14:33:05.875Z,58.32
2024-05-09T14:35:33.219Z,58.44
2024-05-09T14:37:59.925Z,56.26
2024-05-09T14:40:36.916Z,59.24
2024-05-09T14:43:11.302Z,55.72
2024-05-09T14:45:38.485Z,56.26
2024-05-09T14:48:06.171Z,54.56
2024-05-09T14:50:37.361Z,56.73
2024-05-09T14:53:07.499Z,55.64
2024-05-09T14:55:37.511Z,54.88
2024-05-09T14:58:08.611Z,52.95
2024-05-09T15:00:41.303Z,52.90
2024-05-09T15:03:11.298Z,50.16
2024-05-09T15:05:38.104Z,48.84
2024-05-09T15:08:08.642Z,50.94
2024-05-09T15:10:36.882Z,48.51
2024-05-09T15:13:05.376Z,50.38
2024-05-09T15:15:32.988Z,48.76
2024-05-09T15:18:00.311Z,50.66
2024-05-09T15:20:33.955Z,50.99
2024-05-09T15:23:03.366Z,52.92
2024-05-09T15:25:30.381Z,52.46
2024-05-09T15:27:57.549Z,51.99
2024-05-09T15:30:30.405Z,52.00
2024-05-09T15:32:59.687Z,55.15
2024-05-09T15:35:26.314Z,53.16
2024-05-09T15:37:52.908Z,53.38
2024-05-09T15:40:26.847Z,52.85
2024-05-09T15:43:02.435Z,53.10
2024-05-09T15:45:29.331Z,52.17
2024-05-09T15:47:56.943Z,52.23
2024-05-09T15:50:35.168Z,53.63
2024-05-09T15:53:05.928Z,53.88
2024-05-09T15:55:33.937Z,54.54
2024-05-09T15:58:01.789Z,54.50
2024-05-09T16:00:36.574Z,53.70
2024-05-09T16:03:07.122Z,55.01
2024-05-09T16:05:34.023Z,54.13
2024-05-09T16:08:00.997Z,51.80
2024-05-09T16:10:32.566Z,53.03
2024-05-09T16:13:01.043Z,52.92
2024-05-09T16:15:27.762Z,51.80
2024-05-09T16:17:58.541Z,52.81
2024-05-09T16:20:34.761Z,55.96
2024-05-09T16:23:07.063Z,54.08
2024-05-09T16:25:33.674Z,54.68
2024-05-09T16:28:00.692Z,55.86
2024-05-09T16:30:34.147Z,57.08
2024-05-09T16:33:03.744Z,56.06
2024-05-09T16:35:31.068Z,54.19
2024-05-09T16:37:57.682Z,55.06
2024-05-09T16:40:34.283Z,54.41
2024-05-09T16:43:05.890Z,56.23
2024-05-09T16:45:33.187Z,55.89
2024-05-09T16:48:00.529Z,57.14
2024-05-09T16:50:32.597Z,57.14
2024-05-09T16:53:01.581Z,58.40
2024-05-09T16:55:28.234Z,58.07
2024-05-09T16:57:56.100Z,58.56
2024-05-09T17:00:31.798Z,58.23
2024-05-09T17:03:07.421Z,59.45
2024-05-09T17:05:35.405Z,59.50
2024-05-09T17:08:02.533Z,60.30
2024-05-09T17:10:33.093Z,60.54
2024-05-09T17:13:02.474Z,60.27
2024-05-09T17:15:29.635Z,60.49
2024-05-09T17:17:56.745Z,61.54
2024-05-09T17:20:31.285Z,60.90
2024-05-09T17:23:02.274Z,61.45
2024-05-09T17:25:29.228Z,61.44
2024-05-09T17:27:56.590Z,62.62
2024-05-09T17:30:29.395Z,63.35
2024-05-09T17:33:03.186Z,62.62
2024-05-09T17:35:30.013Z,62.41
2024-05-09T17:37:56.817Z,61.66
2024-05-09T17:42:53.142Z,62.12
2024-05-09T17:45:20.626Z,62.59
2024-05-09T17:47:47.709Z,63.99
2024-05-09T17:50:21.006Z,64.85
2024-05-09T17:52:53.644Z,63.84
2024-05-09T17:55:20.743Z,63.91
2024-05-09T17:57:47.475Z,64.91
2024-05-09T18:00:17.469Z,66.18
2024-05-09T18:02:49.974Z,66.47
2024-05-09T18:05:16.681Z,66.14
2024-05-09T18:07:43.346Z,68.09
2024-05-09T18:10:19.034Z,69.02
2024-05-09T18:12:49.054Z,67.73
2024-05-09T18:15:15.662Z,68.31
2024-05-09T18:17:42.659Z,68.61
2024-05-09T18:20:14.136Z,69.59
2024-05-09T18:22:46.253Z,70.24
2024-05-09T18:25:13.125Z,69.03
2024-05-09T18:27:39.776Z,70.67
2024-05-09T18:30:09.484Z,70.43
2024-05-09T18:32:38.233Z,69.65
2024-05-09T18:35:05.189Z,70.68
2024-05-09T18:37:31.789Z,71.64
2024-05-09T18:39:58.416Z,71.44
2024-05-09T18:42:25.016Z,72.63
2024-05-09T18:44:51.592Z,73.55
2024-05-09T18:47:20.237Z,74.18
2024-05-09T18:49:47.130Z,74.44
2024-05-09T18:52:14.048Z,74.58
2024-05-09T18:54:40.725Z,75.60
2024-05-09T18:57:07.525Z,75.86
2024-05-09T18:59:37.123Z,75.64
2024-05-09T19:02:04.471Z,75.70
2024-05-09T19:04:31.530Z,75.45
2024-05-09T19:06:58.271Z,76.44
2024-05-09T19:09:24.861Z,77.10
2024-05-09T19:11:51.540Z,76.69
2024-05-09T19:14:18.308Z,75.91
2024-05-09T19:16:44.969Z,76.32
2024-05-09T19:19:12.419Z,77.07
2024-05-09T19:21:42.127Z,76.73
2024-05-09T19:24:10.568Z,78.12
2024-05-09T19:26:37.225Z,76.93
2024-05-09T19:29:03.814Z,77.78
2024-05-09T19:31:37.155Z,76.75
2024-05-09T19:34:03.778Z,78.51
2024-05-09T19:36:33.374Z,79.74
2024-05-09T19:38:59.964Z,79.31
2024-05-09T19:41:26.582Z,78.70
2024-05-09T19:43:55.807Z,77.94
2024-05-09T19:46:23.624Z,79.16
2024-05-09T19:48:50.615Z,80.79
2024-05-09T19:51:17.295Z,80.65
2024-05-09T19:53:46.395Z,81.22
2024-05-09T19:56:13.080Z,81.11
2024-05-09T19:58:41.351Z,81.10
2024-05-09T20:01:10.762Z,80.44
2024-05-09T20:03:38.074Z,80.25
2024-05-09T20:06:05.061Z,80.94
2024-05-09T20:08:33.736Z,82.53
2024-05-09T20:11:00.349Z,82.25
2024-05-09T20:13:27.246Z,81.56
2024-05-09T20:16:01.370Z,82.50
2024-05-09T20:18:28.266Z,81.46
2024-05-09T20:20:55.079Z,81.21
2024-05-09T20:23:21.837Z,81.72
2024-05-09T20:25:48.409Z,82.10
2024-05-09T20:28:15.046Z,82.10
2024-05-09T20:30:46.841Z,82.03
2024-05-09T20:33:14.254Z,82.73
2024-05-09T20:35:46.043Z,82.15
2024-05-09T20:38:16.787Z,81.96
2024-05-09T20:40:43.858Z,82.25
2024-05-09T20:43:10.958Z,83.87
2024-05-09T20:45:38.123Z,83.65
2024-05-09T20:48:06.100Z,84.00
2024-05-09T20:50:38.675Z,84.59
2024-05-09T20:53:13.179Z,84.00
2024-05-09T20:55:41.051Z,84.67
2024-05-09T20:58:08.395Z,84.83
2024-05-09T21:00:40.051Z,85.14
2024-05-09T21:03:11.481Z,85.36
2024-05-09T21:05:39.035Z,84.58
2024-05-09T21:08:06.332Z,86.26
2024-05-09T21:10:34.150Z,86.59
2024-05-09T21:13:03.360Z,86.04
2024-05-09T21:15:30.795Z,88.06
2024-05-09T21:17:57.687Z,87.06
2024-05-09T21:20:30.921Z,87.37
2024-05-09T21:22:59.574Z,87.38
2024-05-09T21:25:26.598Z,87.85
2024-05-09T21:27:53.584Z,87.43
2024-05-09T21:30:31.580Z,87.16
2024-05-09T21:33:08.472Z,88.06
2024-05-09T21:35:40.938Z,87.47
2024-05-09T21:38:11.023Z,88.95
2024-05-09T21:40:38.525Z,89.82
2024-05-09T21:43:07.403Z,88.96
2024-05-09T21:45:34.688Z,88.00
2024-05-09T21:48:05.101Z,88.38
2024-05-09T21:50:38.989Z,87.81
2024-05-09T21:53:08.083Z,88.95
2024-05-09T21:55:34.849Z,89.06
2024-05-09T21:58:01.813Z,87.92
2024-05-09T22:00:35.654Z,88.14
2024-05-09T22:03:05.860Z,88.29
2024-05-09T22:05:35.562Z,88.94
2024-05-09T22:08:04.222Z,89.59
2024-05-09T22:10:34.750Z,90.12
2024-05-09T22:13:04.863Z,89.76
2024-05-09T22:15:35.442Z,88.78
2024-05-09T22:18:02.795Z,89.92
2024-05-09T22:20:36.535Z,91.34
2024-05-09T22:23:05.558Z,90.41
2024-05-09T22:25:32.802Z,90.92
2024-05-09T22:28:01.272Z,92.67
2024-05-09T22:30:35.609Z,92.09
2024-05-09T22:33:07.288Z,91.69
2024-05-09T22:35:34.092Z,93.44
2024-05-09T22:38:00.962Z,92.66
2024-05-09T22:40:38.415Z,91.35
2024-05-09T22:43:14.907Z,90.99
2024-05-09T22:45:41.691Z,92.59
2024-05-09T22:48:09.281Z,92.97
2024-05-09T22:50:36.154Z,92.66
2024-05-09T22:53:10.796Z,91.91
2024-05-09T22:55:37.307Z,92.33
2024-05-09T22:58:04.084Z,92.35
2024-05-09T23:00:33.421Z,92.43
2024-05-09T23:03:01.597Z,92.90
2024-05-09T23:05:29.012Z,94.09
2024-05-09T23:07:55.911Z,93.22
2024-05-09T23:10:30.895Z,92.47
2024-05-09T23:13:01.998Z,93.63
2024-05-09T23:15:28.742Z,92.95
2024-05-09T23:17:55.715Z,92.04
2024-05-09T23:20:33.115Z,92.62
2024-05-09T23:23:05.123Z,94.12
2024-05-09T23:25:34.733Z,93.25
2024-05-09T23:28:01.410Z,96.09
2024-05-09T23:30:34.633Z,96.19
2024-05-09T23:33:08.472Z,95.21
2024-05-09T23:38:57.479Z,96.82
2024-05-09T23:41:27.107Z,96.72
2024-05-09T23:43:53.679Z,95.19
2024-05-09T23:46:20.895Z,94.69
2024-05-09T23:48:49.872Z,93.87
2024-05-09T23:51:16.526Z,93.15
2024-05-09T23:53:51.688Z,92.95
2024-05-09T23:56:21.145Z,95.72
2024-05-09T23:58:48.375Z,94.63
